createdAt,value
2019-05-26T00:00:47.502Z,12.03
2019-05-26T00:03:33.596Z,10.18
2019-05-26T00:06:08.952Z,11.88
2019-05-26T00:08:39.503Z,9.65
2019-05-26T00:11:12.794Z,9.78
2019-05-26T00:13:57.714Z,10.35
2019-05-26T00:16:30.762Z,11.78
2019-05-26T00:19:06.817Z,9.80
2019-05-26T00:21:54.194Z,10.78
2019-05-26T00:24:29.570Z,9.78
2019-05-26T00:27:10.387Z,9.75
2019-05-26T00:29:44.484Z,11.57
2019-05-26T00:32:13.657Z,9.60
2019-05-26T00:34:51.795Z,10.15
2019-05-26T00:37:25.781Z,11.08
2019-05-26T00:40:00.530Z,11.53
2019-05-26T00:42:30.078Z,10.60
2019-05-26T00:45:01.559Z,10.50
2019-05-26T00:47:31.417Z,12.18
2019-05-26T00:50:05.889Z,11.43
2019-05-26T00:52:37.894Z,11.40
2019-05-26T00:55:10.930Z,11.40
2019-05-26T00:57:44.584Z,11.27
2019-05-26T01:00:17.626Z,9.75
2019-05-26T01:02:50.769Z,11.68
2019-05-26T01:05:27.681Z,9.95
2019-05-26T01:08:09.577Z,10.60
2019-05-26T01:10:35.314Z,10.63
2019-05-26T01:13:25.098Z,11.30
2019-05-26T01:18:32.817Z,10.77
2019-05-26T01:21:08.326Z,10.70
2019-05-26T01:23:38.975Z,11.68
2019-05-26T01:26:12.027Z,11.20
2019-05-26T01:28:44.413Z,11.53
2019-05-26T01:31:14.407Z,11.15
2019-05-26T01:36:27.886Z,11.97
2019-05-26T01:39:01.754Z,11.75
2019-05-26T01:41:35.502Z,10.37
2019-05-26T01:44:04.493Z,11.68
2019-05-26T01:46:33.953Z,11.45
2019-05-26T01:49:03.147Z,11.03
2019-05-26T01:51:33.814Z,13.53
2019-05-26T01:54:09.818Z,10.98
2019-05-26T01:56:43.231Z,11.07
2019-05-26T01:59:15.073Z,11.43
2019-05-26T02:01:48.676Z,14.18
2019-05-26T02:04:17.998Z,9.88
2019-05-26T02:06:50.696Z,9.40
2019-05-26T02:09:22.536Z,9.70
2019-05-26T02:11:55.878Z,11.03
2019-05-26T02:14:31.824Z,9.95
2019-05-26T02:17:06.164Z,9.85
2019-05-26T02:19:35.236Z,8.93
2019-05-26T02:22:06.336Z,11.48
2019-05-26T02:24:39.178Z,11.18
2019-05-26T02:27:12.416Z,10.55
2019-05-26T02:29:45.151Z,12.47
2019-05-26T02:32:16.647Z,10.55
2019-05-26T02:34:47.497Z,10.30
2019-05-26T02:37:16.865Z,11.70
2019-05-26T02:39:48.061Z,11.48
2019-05-26T02:42:19.045Z,9.60
2019-05-26T02:44:48.305Z,8.75
2019-05-26T02:47:19.695Z,10.43
2019-05-26T02:49:49.027Z,9.87
2019-05-26T02:52:22.905Z,11.38
2019-05-26T02:54:53.803Z,8.95
2019-05-26T02:57:31.567Z,9.28
2019-05-26T03:00:05.564Z,11.55
2019-05-26T03:02:35.830Z,10.48
2019-05-26T03:05:07.825Z,8.37
2019-05-26T03:07:40.794Z,8.05
2019-05-26T03:10:13.647Z,9.73
2019-05-26T03:12:45.246Z,10.25
2019-05-26T03:15:17.023Z,9.98
2019-05-26T03:17:47.511Z,9.45
2019-05-26T03:20:16.765Z,8.73
2019-05-26T03:23:12.163Z,11.30
2019-05-26T03:25:42.133Z,8.95
2019-05-26T03:28:11.918Z,8.93
2019-05-26T03:30:41.776Z,8.70
2019-05-26T03:33:11.058Z,11.12
2019-05-26T03:35:50.240Z,10.47
2019-05-26T03:38:18.804Z,10.23
2019-05-26T03:40:49.385Z,10.53
2019-05-26T03:43:19.435Z,12.00
2019-05-26T03:45:49.838Z,9.88
2019-05-26T03:48:19.214Z,11.50
2019-05-26T03:50:48.116Z,10.88
2019-05-26T03:53:17.456Z,11.28
2019-05-26T03:55:46.445Z,10.08
2019-05-26T03:58:15.297Z,12.10
2019-05-26T04:00:44.409Z,11.95
2019-05-26T04:03:14.230Z,10.58
2019-05-26T04:05:43.692Z,10.83
2019-05-26T04:08:12.653Z,10.53
2019-05-26T04:10:41.536Z,11.65
2019-05-26T04:13:10.930Z,11.18
2019-05-26T04:15:41.599Z,11.30
2019-05-26T04:18:12.193Z,10.32
2019-05-26T04:20:45.566Z,10.82
2019-05-26T04:23:12.911Z,11.08
2019-05-26T04:25:43.524Z,11.53
2019-05-26T04:28:12.624Z,11.33
2019-05-26T04:30:41.594Z,9.68
2019-05-26T04:33:13.064Z,10.13
2019-05-26T04:35:52.118Z,10.32
2019-05-26T04:38:23.977Z,10.30
2019-05-26T04:40:53.915Z,11.28
2019-05-26T04:43:23.704Z,11.37
2019-05-26T04:45:53.275Z,10.35
2019-05-26T04:48:23.284Z,11.80
2019-05-26T04:50:53.208Z,9.20
2019-05-26T04:53:24.071Z,9.38
2019-05-26T04:55:53.058Z,10.08
2019-05-26T04:58:24.407Z,9.57
2019-05-26T05:00:56.117Z,10.82
2019-05-26T05:03:25.207Z,10.17
2019-05-26T05:05:55.429Z,10.03
2019-05-26T05:08:34.601Z,10.32
2019-05-26T05:11:14.523Z,10.60
2019-05-26T05:13:44.513Z,10.35
2019-05-26T05:16:13.581Z,8.53
2019-05-26T05:18:44.368Z,10.63
2019-05-26T05:21:13.510Z,9.93
2019-05-26T05:23:47.751Z,10.53
2019-05-26T05:26:16.725Z,9.03
2019-05-26T05:28:45.755Z,9.23
2019-05-26T05:31:18.624Z,9.60
2019-05-26T05:33:48.755Z,8.15
2019-05-26T05:36:24.397Z,9.43
2019-05-26T05:38:58.004Z,8.70
2019-05-26T05:41:28.723Z,8.33
2019-05-26T05:43:59.592Z,9.33
2019-05-26T05:46:29.087Z,9.88
2019-05-26T05:48:57.961Z,8.83
2019-05-26T05:51:28.486Z,9.73
2019-05-26T05:53:57.290Z,8.08
2019-05-26T05:56:26.802Z,9.55
2019-05-26T05:58:56.570Z,8.63
2019-05-26T06:01:25.484Z,7.45
2019-05-26T06:04:05.864Z,9.40
2019-05-26T06:06:47.728Z,7.53
2019-05-26T06:09:16.623Z,8.15
2019-05-26T06:11:45.530Z,7.75
2019-05-26T06:14:15.943Z,8.93
2019-05-26T06:16:44.868Z,7.80
2019-05-26T06:19:14.671Z,8.38
2019-05-26T06:21:46.326Z,7.10
2019-05-26T06:24:16.895Z,8.48
2019-05-26T06:26:46.108Z,7.97
2019-05-26T06:29:16.926Z,8.63
2019-05-26T06:31:47.916Z,8.93
2019-05-26T06:34:17.039Z,8.08
2019-05-26T06:36:51.104Z,8.08
2019-05-26T06:39:19.837Z,6.80
2019-05-26T06:41:50.425Z,8.53
2019-05-26T06:44:22.749Z,7.03
2019-05-26T06:46:56.375Z,7.40
2019-05-26T06:49:27.032Z,7.87
2019-05-26T06:51:58.559Z,9.23
2019-05-26T06:54:27.080Z,7.60
2019-05-26T06:56:59.541Z,8.08
2019-05-26T06:59:30.059Z,7.08
2019-05-26T07:01:59.137Z,8.13
2019-05-26T07:04:28.336Z,7.65
2019-05-26T07:06:58.559Z,7.43
2019-05-26T07:09:29.751Z,8.20
2019-05-26T07:12:00.381Z,8.15
2019-05-26T07:14:34.277Z,7.00
2019-05-26T07:17:03.522Z,7.15
2019-05-26T07:19:32.732Z,7.45
2019-05-26T07:22:02.876Z,8.05
2019-05-26T07:24:34.950Z,5.67
2019-05-26T07:27:04.709Z,6.20
2019-05-26T07:29:33.643Z,7.20
2019-05-26T07:32:02.527Z,5.55
2019-05-26T07:34:42.805Z,7.40
2019-05-26T07:37:13.154Z,7.42
2019-05-26T07:39:42.717Z,7.03
2019-05-26T07:42:13.276Z,5.90
2019-05-26T07:44:42.520Z,6.37
2019-05-26T07:47:15.084Z,7.05
2019-05-26T07:49:45.481Z,7.65
2019-05-26T07:52:14.773Z,6.67
2019-05-26T07:54:43.836Z,6.70
2019-05-26T07:57:14.116Z,6.30
2019-05-26T07:59:43.762Z,7.20
2019-05-26T08:02:13.248Z,6.22
2019-05-26T08:04:45.288Z,5.70
2019-05-26T08:07:22.875Z,5.03
2019-05-26T08:09:50.435Z,4.78
2019-05-26T08:12:26.798Z,3.65
2019-05-26T08:14:52.074Z,3.15
2019-05-26T08:17:24.049Z,2.85
2019-05-26T08:20:00.239Z,4.05
2019-05-26T08:22:29.448Z,3.42
2019-05-26T08:24:59.407Z,6.25
2019-05-26T08:27:29.453Z,3.50
2019-05-26T08:30:17.863Z,3.55
2019-05-26T08:32:48.782Z,3.58
2019-05-26T08:35:18.064Z,2.72
2019-05-26T08:37:46.943Z,2.67
2019-05-26T08:40:19.070Z,3.22
2019-05-26T08:42:56.326Z,2.93
2019-05-26T08:45:25.700Z,3.33
2019-05-26T08:47:54.932Z,2.87
2019-05-26T08:50:30.009Z,3.60
2019-05-26T08:53:04.036Z,4.08
2019-05-26T08:55:33.805Z,3.50
2019-05-26T08:58:04.965Z,3.23
2019-05-26T09:00:44.211Z,3.02
2019-05-26T09:03:15.924Z,3.10
2019-05-26T09:05:46.282Z,2.92
2019-05-26T09:08:15.234Z,3.15
2019-05-26T09:11:01.080Z,3.55
2019-05-26T09:13:34.275Z,4.03
2019-05-26T09:16:21.333Z,3.33
2019-05-26T09:18:56.152Z,2.80
2019-05-26T09:21:27.539Z,2.95
2019-05-26T09:23:57.113Z,3.37
2019-05-26T09:26:37.031Z,2.60
2019-05-26T09:29:06.074Z,3.20
2019-05-26T09:31:35.620Z,3.00
2019-05-26T09:34:04.800Z,2.80
2019-05-26T09:36:33.666Z,2.55
2019-05-26T09:39:05.252Z,2.87
2019-05-26T09:41:35.216Z,3.30
2019-05-26T09:44:04.886Z,2.73
2019-05-26T09:46:36.815Z,3.27
2019-05-26T09:49:14.908Z,3.02
2019-05-26T09:51:57.818Z,2.70
2019-05-26T09:54:26.673Z,2.77
2019-05-26T09:57:01.367Z,3.08
2019-05-26T09:59:34.199Z,2.92
2019-05-26T10:02:04.456Z,2.50
2019-05-26T10:04:33.176Z,3.00
2019-05-26T10:07:04.057Z,3.55
2019-05-26T10:09:33.178Z,2.33
2019-05-26T10:12:03.230Z,2.50
2019-05-26T10:14:41.941Z,2.60
2019-05-26T10:17:12.403Z,2.77
2019-05-26T10:19:43.659Z,2.77
2019-05-26T10:22:16.910Z,2.08
2019-05-26T10:24:49.236Z,2.60
2019-05-26T10:27:21.582Z,2.20
2019-05-26T10:29:54.719Z,2.50
2019-05-26T10:32:24.273Z,3.02
2019-05-26T10:34:53.836Z,2.17
2019-05-26T10:37:26.181Z,2.40
2019-05-26T10:39:56.556Z,2.37
2019-05-26T10:42:54.687Z,3.30
2019-05-26T10:45:25.092Z,3.40
2019-05-26T10:47:56.632Z,1.90
2019-05-26T10:50:28.819Z,2.50
2019-05-26T10:53:00.533Z,2.40
2019-05-26T10:55:34.888Z,2.30
2019-05-26T10:58:16.463Z,2.25
2019-05-26T11:00:44.360Z,2.30
2019-05-26T11:06:15.875Z,2.65
2019-05-26T11:08:46.581Z,2.40
2019-05-26T11:11:16.539Z,2.77
2019-05-26T11:14:01.945Z,2.30
2019-05-26T11:16:25.419Z,3.00
2019-05-26T11:21:36.819Z,2.20
2019-05-26T11:27:09.475Z,2.40
2019-05-26T11:29:31.943Z,2.40
2019-05-26T11:32:02.310Z,2.60
2019-05-26T11:34:31.424Z,2.30
2019-05-26T11:37:00.326Z,1.90
2019-05-26T11:39:29.725Z,2.10
2019-05-26T11:42:24.604Z,3.30
2019-05-26T11:44:54.988Z,2.05
2019-05-26T11:47:28.875Z,1.92
2019-05-26T11:50:11.490Z,2.83
2019-05-26T11:52:44.188Z,2.17
2019-05-26T11:55:16.520Z,1.87
2019-05-26T11:57:47.971Z,2.00
2019-05-26T12:00:31.773Z,2.22
2019-05-26T12:03:00.688Z,1.98
2019-05-26T12:05:40.746Z,1.80
2019-05-26T12:08:10.667Z,1.80
2019-05-26T12:10:40.792Z,1.98
2019-05-26T12:13:13.576Z,3.15
2019-05-26T12:15:45.387Z,1.70
2019-05-26T12:18:16.324Z,1.92
2019-05-26T12:20:56.577Z,1.60
2019-05-26T12:23:24.827Z,1.80
2019-05-26T12:25:57.614Z,2.72
2019-05-26T12:28:27.696Z,1.70
2019-05-26T12:30:56.434Z,1.70
2019-05-26T12:33:25.142Z,1.73
2019-05-26T12:38:53.098Z,2.52
2019-05-26T12:41:28.914Z,1.85
2019-05-26T12:44:01.929Z,1.80
2019-05-26T12:46:31.780Z,1.70
2019-05-26T12:49:03.808Z,1.55
2019-05-26T12:51:34.541Z,1.87
2019-05-26T12:54:03.624Z,1.65
2019-05-26T12:56:58.520Z,3.30
2019-05-26T12:59:28.013Z,1.80
2019-05-26T13:02:00.362Z,1.60
2019-05-26T13:04:29.151Z,2.15
2019-05-26T13:06:57.956Z,1.62
2019-05-26T13:09:27.511Z,1.87
2019-05-26T13:11:56.334Z,1.47
2019-05-26T13:14:25.141Z,1.70
2019-05-26T13:16:54.159Z,2.30
2019-05-26T13:19:53.009Z,2.75
2019-05-26T13:22:21.618Z,1.60
2019-05-26T13:24:51.455Z,1.70
2019-05-26T13:27:28.200Z,1.50
2019-05-26T13:30:08.815Z,1.62
2019-05-26T13:32:37.616Z,1.60
2019-05-26T13:35:20.046Z,1.72
2019-05-26T13:37:53.040Z,1.70
2019-05-26T13:40:23.022Z,1.77
2019-05-26T13:43:06.444Z,1.65
2019-05-26T13:45:45.422Z,1.70
2019-05-26T13:51:08.864Z,1.70
2019-05-26T13:53:39.755Z,1.70
2019-05-26T13:56:12.111Z,1.75
2019-05-26T13:58:41.714Z,1.65
2019-05-26T14:01:14.241Z,1.52
2019-05-26T14:04:03.890Z,1.77
2019-05-26T14:06:33.810Z,1.60
2019-05-26T14:09:02.866Z,2.12
2019-05-26T14:11:32.446Z,1.70
2019-05-26T14:14:01.307Z,1.60
2019-05-26T14:16:30.875Z,2.30
2019-05-26T14:19:01.217Z,1.70
2019-05-26T14:21:41.847Z,1.70
2019-05-26T14:24:26.669Z,2.42
2019-05-26T14:26:48.246Z,1.72
2019-05-26T14:29:20.995Z,1.60
2019-05-26T14:31:55.869Z,1.80
2019-05-26T14:34:34.898Z,1.92
2019-05-26T14:37:02.567Z,1.95
2019-05-26T14:39:33.405Z,1.70
2019-05-26T14:42:22.289Z,1.77
2019-05-26T14:44:57.633Z,1.55
2019-05-26T14:47:30.785Z,1.65
2019-05-26T14:50:03.561Z,1.52
2019-05-26T14:52:39.444Z,1.70
2019-05-26T14:58:15.063Z,1.87
2019-05-26T15:00:38.922Z,1.75
2019-05-26T15:03:09.042Z,2.27
2019-05-26T15:05:39.891Z,1.92
2019-05-26T15:08:13.278Z,1.80
2019-05-26T15:10:54.445Z,1.80
2019-05-26T15:13:20.905Z,1.90
2019-05-26T15:16:08.758Z,1.90
2019-05-26T15:18:25.479Z,1.67
2019-05-26T15:20:57.071Z,1.77
2019-05-26T15:23:26.737Z,1.60
2019-05-26T15:25:55.925Z,2.30
2019-05-26T15:28:25.373Z,1.72
2019-05-26T15:31:20.952Z,1.80
2019-05-26T15:33:55.226Z,1.60
2019-05-26T15:36:23.959Z,1.70
2019-05-26T15:38:52.802Z,1.62
2019-05-26T15:41:21.948Z,1.60
2019-05-26T15:43:51.429Z,1.67
2019-05-26T15:46:25.577Z,1.90
2019-05-26T15:48:54.467Z,2.42
2019-05-26T15:51:23.652Z,1.95
2019-05-26T15:53:55.454Z,2.20
2019-05-26T15:56:31.295Z,1.67
2019-05-26T15:59:02.251Z,1.57
2019-05-26T16:01:32.185Z,1.80
2019-05-26T16:04:02.996Z,3.00
2019-05-26T16:06:45.284Z,1.95
2019-05-26T16:09:20.202Z,1.77
2019-05-26T16:11:50.059Z,2.35
2019-05-26T16:14:20.822Z,1.80
2019-05-26T16:16:51.591Z,1.60
2019-05-26T16:19:20.457Z,1.60
2019-05-26T16:21:58.925Z,1.53
2019-05-26T16:24:27.592Z,1.62
2019-05-26T16:27:00.541Z,1.90
2019-05-26T16:29:29.686Z,2.10
2019-05-26T16:31:59.159Z,2.25
2019-05-26T16:34:28.009Z,1.70
2019-05-26T16:37:00.627Z,1.70
2019-05-26T16:39:36.848Z,2.10
2019-05-26T16:42:00.348Z,1.80
2019-05-26T16:44:30.832Z,2.00
2019-05-26T16:47:00.028Z,1.80
2019-05-26T16:49:34.414Z,2.30
2019-05-26T16:52:13.432Z,1.98
2019-05-26T16:54:42.664Z,1.98
2019-05-26T16:57:14.813Z,2.42
2019-05-26T16:59:43.542Z,2.10
2019-05-26T17:02:13.528Z,2.00
2019-05-26T17:04:42.402Z,2.10
2019-05-26T17:07:15.177Z,1.90
2019-05-26T17:09:44.242Z,1.90
2019-05-26T17:12:13.089Z,2.42
2019-05-26T17:14:41.909Z,2.12
2019-05-26T17:17:14.844Z,1.85
2019-05-26T17:19:41.611Z,2.20
2019-05-26T17:22:10.406Z,2.50
2019-05-26T17:24:40.097Z,2.40
2019-05-26T17:27:09.060Z,2.60
2019-05-26T17:29:38.428Z,2.20
2019-05-26T17:32:07.291Z,2.50
2019-05-26T17:34:36.912Z,2.52
2019-05-26T17:37:05.725Z,3.47
2019-05-26T17:39:36.015Z,3.40
2019-05-26T17:42:05.407Z,3.12
2019-05-26T17:44:34.614Z,2.40
2019-05-26T17:47:04.297Z,2.47
2019-05-26T17:49:33.622Z,5.17
2019-05-26T17:52:06.296Z,3.20
2019-05-26T17:54:35.529Z,2.60
2019-05-26T17:57:04.391Z,2.90
2019-05-26T17:59:34.026Z,3.17
2019-05-26T18:02:05.301Z,2.20
2019-05-26T18:04:36.244Z,3.37
2019-05-26T18:07:06.251Z,2.92
2019-05-26T18:09:44.366Z,4.92
2019-05-26T18:12:10.873Z,4.92
2019-05-26T18:14:41.462Z,3.95
2019-05-26T18:17:10.463Z,2.67
2019-05-26T18:19:40.182Z,2.85
2019-05-26T18:22:19.039Z,2.60
2019-05-26T18:24:55.863Z,2.40
2019-05-26T18:27:19.765Z,2.30
2019-05-26T18:29:49.601Z,2.10
2019-05-26T18:32:19.429Z,2.00
2019-05-26T18:37:32.118Z,2.02
2019-05-26T18:40:01.926Z,2.37
2019-05-26T18:42:31.032Z,2.30
2019-05-26T18:45:00.189Z,2.20
2019-05-26T18:47:29.532Z,2.40
2019-05-26T18:49:58.739Z,3.58
2019-05-26T18:52:27.618Z,2.62
2019-05-26T18:54:56.434Z,2.90
2019-05-26T18:57:28.288Z,2.90
2019-05-26T18:59:56.955Z,2.70
2019-05-26T19:02:26.494Z,2.83
2019-05-26T19:04:58.770Z,3.27
2019-05-26T19:07:29.115Z,2.87
2019-05-26T19:10:02.387Z,3.70
2019-05-26T19:12:32.542Z,3.12
2019-05-26T19:15:04.406Z,2.47
2019-05-26T19:17:39.659Z,2.40
2019-05-26T19:20:19.627Z,2.50
2019-05-26T19:22:48.915Z,2.47
2019-05-26T19:25:19.450Z,3.72
2019-05-26T19:27:52.283Z,2.50
2019-05-26T19:30:22.886Z,2.30
2019-05-26T19:32:53.968Z,2.45
2019-05-26T19:35:25.194Z,2.50
2019-05-26T19:37:54.938Z,2.67
2019-05-26T19:40:24.955Z,2.52
2019-05-26T19:42:54.905Z,2.40
2019-05-26T19:45:38.017Z,2.67
2019-05-26T19:48:06.235Z,2.77
2019-05-26T19:50:38.786Z,3.60
2019-05-26T19:53:08.771Z,2.40
2019-05-26T19:55:38.214Z,2.58
2019-05-26T19:58:08.255Z,2.75
2019-05-26T20:00:37.218Z,2.83
2019-05-26T20:03:06.446Z,2.83
2019-05-26T20:05:37.105Z,2.67
2019-05-26T20:08:06.247Z,2.67
2019-05-26T20:10:36.235Z,2.50
2019-05-26T20:13:07.515Z,2.67
2019-05-26T20:15:36.789Z,3.02
2019-05-26T20:18:05.860Z,2.75
2019-05-26T20:20:34.850Z,3.58
2019-05-26T20:23:13.698Z,2.85
2019-05-26T20:25:50.236Z,2.62
2019-05-26T20:28:23.812Z,2.90
2019-05-26T20:30:53.363Z,2.70
2019-05-26T20:33:23.474Z,3.30
2019-05-26T20:35:53.719Z,2.58
2019-05-26T20:38:24.812Z,2.80
2019-05-26T20:40:55.799Z,2.60
2019-05-26T20:43:25.201Z,2.80
2019-05-26T20:45:54.604Z,2.95
2019-05-26T20:48:25.361Z,3.00
2019-05-26T20:50:55.084Z,3.10
2019-05-26T20:53:32.584Z,3.02
2019-05-26T20:56:03.110Z,3.45
2019-05-26T20:58:31.987Z,3.63
2019-05-26T21:01:03.680Z,3.35
2019-05-26T21:03:34.970Z,3.52
2019-05-26T21:06:11.414Z,3.75
2019-05-26T21:08:49.733Z,4.42
2019-05-26T21:11:21.065Z,4.17
2019-05-26T21:13:53.175Z,4.10
2019-05-26T21:16:29.687Z,3.92
2019-05-26T21:19:02.650Z,3.20
2019-05-26T21:21:33.568Z,3.17
2019-05-26T21:24:08.478Z,3.30
2019-05-26T21:26:40.896Z,3.72
2019-05-26T21:29:13.549Z,4.20
2019-05-26T21:31:44.310Z,3.98
2019-05-26T21:34:15.700Z,5.12
2019-05-26T21:36:52.521Z,3.80
2019-05-26T21:39:22.081Z,3.70
2019-05-26T21:41:51.689Z,3.90
2019-05-26T21:44:22.573Z,3.85
2019-05-26T21:46:53.157Z,4.37
2019-05-26T21:49:23.031Z,3.60
2019-05-26T21:51:53.144Z,3.60
2019-05-26T21:54:22.786Z,3.62
2019-05-26T21:56:53.149Z,3.45
2019-05-26T21:59:24.498Z,3.62
2019-05-26T22:01:54.105Z,4.10
2019-05-26T22:04:24.760Z,3.85
2019-05-26T22:06:54.955Z,4.28
2019-05-26T22:09:25.936Z,4.62
2019-05-26T22:11:55.380Z,4.10
2019-05-26T22:14:27.380Z,3.80
2019-05-26T22:16:58.628Z,3.95
2019-05-26T22:19:51.999Z,3.70
2019-05-26T22:22:18.846Z,4.47
2019-05-26T22:24:49.623Z,4.60
2019-05-26T22:27:21.791Z,4.77
2019-05-26T22:29:59.678Z,4.28
2019-05-26T22:32:30.136Z,3.90
2019-05-26T22:35:01.572Z,4.20
2019-05-26T22:37:31.035Z,3.65
2019-05-26T22:40:00.890Z,4.47
2019-05-26T22:42:29.786Z,3.85
2019-05-26T22:45:00.807Z,3.55
2019-05-26T22:47:29.625Z,4.35
2019-05-26T22:49:59.784Z,4.25
2019-05-26T22:52:29.448Z,4.27
2019-05-26T22:55:05.367Z,4.60
2019-05-26T22:57:38.092Z,3.67
2019-05-26T23:00:09.840Z,3.98
2019-05-26T23:02:39.949Z,3.70
2019-05-26T23:05:11.787Z,4.28
2019-05-26T23:07:41.460Z,4.35
2019-05-26T23:10:11.430Z,4.22
2019-05-26T23:12:41.230Z,6.65
2019-05-26T23:15:11.616Z,4.72
2019-05-26T23:18:05.412Z,6.03
2019-05-26T23:20:34.342Z,5.53
2019-05-26T23:23:03.840Z,5.80
2019-05-26T23:25:34.259Z,4.62
2019-05-26T23:28:05.162Z,5.50
2019-05-26T23:30:34.993Z,4.37
2019-05-26T23:33:05.088Z,4.33
2019-05-26T23:35:39.190Z,4.10
2019-05-26T23:38:08.771Z,4.55
2019-05-26T23:40:38.326Z,4.45
2019-05-26T23:43:08.882Z,4.20
2019-05-26T23:45:38.126Z,5.80
2019-05-26T23:48:07.829Z,4.45
2019-05-26T23:50:37.668Z,4.37
2019-05-26T23:53:06.928Z,4.33
2019-05-26T23:55:36.141Z,5.45
2019-05-26T23:58:06.318Z,4.20
